createdAt,value
2017-07-06T00:00:29.177Z,956.69
2017-07-06T00:01:28.875Z,956.68
2017-07-06T00:02:25.977Z,956.75
2017-07-06T00:03:26.021Z,956.74
2017-07-06T00:04:26.057Z,956.75
2017-07-06T00:05:25.914Z,956.76
2017-07-06T00:06:23.611Z,956.75
2017-07-06T00:07:25.693Z,956.71
2017-07-06T00:08:25.773Z,956.70
2017-07-06T00:09:25.840Z,956.72
2017-07-06T00:10:30.627Z,956.76
2017-07-06T00:12:27.649Z,956.75
2017-07-06T00:13:28.994Z,956.75
2017-07-06T00:14:26.094Z,956.71
2017-07-06T00:15:26.155Z,956.69
2017-07-06T00:16:29.324Z,956.70
2017-07-06T00:17:27.525Z,956.69
2017-07-06T00:18:25.618Z,956.72
2017-07-06T00:19:25.654Z,956.74
2017-07-06T00:20:25.698Z,956.75
2017-07-06T00:22:28.048Z,956.72
2017-07-06T00:23:25.522Z,956.70
2017-07-06T00:24:32.107Z,956.68
2017-07-06T00:25:26.232Z,956.68
2017-07-06T00:26:25.285Z,956.66
2017-07-06T00:27:25.364Z,956.68
2017-07-06T00:28:25.493Z,956.70
2017-07-06T00:29:25.576Z,956.68
2017-07-06T00:30:26.218Z,956.72
2017-07-06T00:32:25.726Z,956.69
2017-07-06T00:33:28.893Z,956.69
2017-07-06T00:34:25.946Z,956.66
2017-07-06T00:35:26.007Z,956.67
2017-07-06T00:36:29.124Z,956.64
2017-07-06T00:37:26.268Z,956.67
2017-07-06T00:38:25.338Z,956.72
2017-07-06T00:39:25.392Z,956.73
2017-07-06T00:40:19.465Z,956.70
2017-07-06T00:44:33.382Z,956.69
2017-07-06T00:45:25.479Z,956.70
2017-07-06T00:46:25.598Z,956.73
2017-07-06T00:47:25.660Z,956.70
2017-07-06T00:48:25.724Z,956.68
2017-07-06T00:49:25.854Z,956.73
2017-07-06T00:50:28.994Z,956.69
2017-07-06T00:52:25.777Z,956.79
2017-07-06T00:53:22.550Z,956.73
2017-07-06T00:54:25.607Z,956.75
2017-07-06T00:55:25.728Z,956.76
2017-07-06T00:56:25.777Z,956.77
2017-07-06T00:57:20.360Z,956.82
2017-07-06T00:58:18.354Z,956.76
2017-07-06T00:59:25.518Z,956.77
2017-07-06T01:00:20.076Z,956.79
2017-07-06T01:03:28.483Z,956.79
2017-07-06T01:04:25.523Z,956.82
2017-07-06T01:05:25.597Z,956.75
2017-07-06T01:06:28.197Z,956.76
2017-07-06T01:07:25.388Z,956.78
2017-07-06T01:09:25.576Z,956.74
2017-07-06T01:10:22.589Z,956.80
2017-07-06T01:12:28.548Z,956.76
2017-07-06T01:13:29.299Z,956.76
2017-07-06T01:15:25.404Z,956.74
2017-07-06T01:16:25.172Z,956.77
2017-07-06T01:17:28.394Z,956.75
2017-07-06T01:19:27.684Z,956.76
2017-07-06T01:20:31.457Z,956.74
2017-07-06T01:21:25.342Z,956.74
2017-07-06T01:22:25.054Z,956.77
2017-07-06T01:23:26.143Z,956.77
2017-07-06T01:24:29.236Z,956.74
2017-07-06T01:25:25.938Z,956.73
2017-07-06T01:26:27.952Z,956.72
2017-07-06T01:27:27.579Z,956.69
2017-07-06T01:28:25.667Z,956.68
2017-07-06T01:29:31.386Z,956.67
2017-07-06T01:30:25.457Z,956.66
2017-07-06T01:32:28.785Z,956.67
2017-07-06T01:33:28.651Z,956.69
2017-07-06T01:34:25.683Z,956.67
2017-07-06T01:35:25.721Z,956.65
2017-07-06T01:36:28.233Z,956.68
2017-07-06T01:37:25.316Z,956.69
2017-07-06T01:38:25.362Z,956.71
2017-07-06T01:39:25.417Z,956.67
2017-07-06T01:41:25.512Z,956.70
2017-07-06T01:42:25.554Z,956.72
2017-07-06T01:43:25.600Z,956.70
2017-07-06T01:44:25.685Z,956.68
2017-07-06T01:46:25.648Z,956.71
2017-07-06T01:47:25.725Z,956.72
2017-07-06T01:48:25.351Z,956.69
2017-07-06T01:49:27.913Z,956.67
2017-07-06T01:50:25.936Z,956.68
2017-07-06T01:52:25.269Z,956.75
2017-07-06T01:53:28.447Z,956.73
2017-07-06T01:54:25.473Z,956.71
2017-07-06T01:55:25.535Z,956.70
2017-07-06T01:56:25.674Z,956.70
2017-07-06T01:57:25.563Z,956.70
2017-07-06T01:58:25.708Z,956.70
2017-07-06T01:59:25.757Z,956.73
2017-07-06T02:00:27.837Z,956.75
2017-07-06T02:02:26.071Z,956.73
2017-07-06T02:03:26.190Z,956.76
2017-07-06T02:04:25.372Z,956.75
2017-07-06T02:05:19.940Z,956.79
2017-07-06T02:06:28.551Z,956.79
2017-07-06T02:07:26.197Z,956.84
2017-07-06T02:08:25.995Z,956.82
2017-07-06T02:10:26.199Z,956.81
2017-07-06T02:12:27.553Z,956.81
2017-07-06T02:13:28.673Z,956.81
2017-07-06T02:14:25.724Z,956.80
2017-07-06T02:15:25.164Z,956.74
2017-07-06T02:16:25.736Z,956.79
2017-07-06T02:17:28.912Z,956.79
2017-07-06T02:18:29.192Z,956.77
2017-07-06T02:19:25.250Z,956.77
2017-07-06T02:20:25.292Z,956.75
2017-07-06T02:22:19.312Z,956.80
2017-07-06T02:23:25.376Z,956.76
2017-07-06T02:25:25.443Z,956.74
2017-07-06T02:26:25.302Z,956.78
2017-07-06T02:27:25.444Z,956.74
2017-07-06T02:28:25.535Z,956.78
2017-07-06T02:29:25.164Z,956.76
2017-07-06T02:30:26.217Z,956.77
2017-07-06T02:32:25.434Z,956.78
2017-07-06T02:33:25.511Z,956.79
2017-07-06T02:34:25.194Z,956.80
2017-07-06T02:35:25.049Z,956.81
2017-07-06T02:36:28.830Z,956.86
2017-07-06T02:37:25.693Z,956.85
2017-07-06T02:38:25.778Z,956.89
2017-07-06T02:39:25.830Z,956.85
2017-07-06T02:40:25.861Z,956.83
2017-07-06T02:42:29.239Z,956.86
2017-07-06T02:44:25.384Z,956.89
2017-07-06T02:45:19.725Z,956.85
2017-07-06T02:46:25.823Z,956.87
2017-07-06T02:47:25.869Z,956.84
2017-07-06T02:48:25.904Z,956.87
2017-07-06T02:49:25.985Z,956.91
2017-07-06T02:50:26.026Z,956.90
2017-07-06T02:52:25.433Z,956.86
2017-07-06T02:53:25.513Z,956.91
2017-07-06T02:54:26.204Z,956.91
2017-07-06T02:57:25.281Z,956.92
2017-07-06T02:58:25.445Z,956.91
2017-07-06T02:59:25.494Z,956.97
2017-07-06T03:00:25.573Z,956.94
2017-07-06T03:02:25.578Z,956.94
2017-07-06T03:03:26.751Z,956.94
2017-07-06T03:04:25.798Z,956.98
2017-07-06T03:05:25.836Z,956.98
2017-07-06T03:06:28.891Z,956.92
2017-07-06T03:07:25.955Z,956.91
2017-07-06T03:08:26.021Z,956.92
2017-07-06T03:09:26.057Z,957.00
2017-07-06T03:10:29.188Z,956.96
2017-07-06T03:12:25.323Z,956.98
2017-07-06T03:14:25.382Z,956.93
2017-07-06T03:15:25.523Z,956.97
2017-07-06T03:17:28.751Z,956.94
2017-07-06T03:18:25.939Z,956.98
2017-07-06T03:19:26.199Z,956.99
2017-07-06T03:20:25.282Z,956.97
2017-07-06T03:22:25.553Z,957.02
2017-07-06T03:24:25.642Z,956.99
2017-07-06T03:25:25.721Z,957.00
2017-07-06T03:26:25.832Z,956.99
2017-07-06T03:27:27.123Z,957.00
2017-07-06T03:28:20.714Z,957.01
2017-07-06T03:29:25.763Z,957.02
2017-07-06T03:30:25.482Z,957.02
2017-07-06T03:32:28.763Z,957.04
2017-07-06T03:33:28.214Z,957.05
2017-07-06T03:34:25.752Z,957.06
2017-07-06T03:35:25.873Z,957.05
2017-07-06T03:36:25.934Z,957.03
2017-07-06T03:37:25.990Z,957.05
2017-07-06T03:38:25.601Z,957.07
2017-07-06T03:39:25.110Z,957.03
2017-07-06T03:40:26.192Z,957.07
2017-07-06T03:42:25.572Z,957.08
2017-07-06T03:43:25.625Z,957.11
2017-07-06T03:44:25.732Z,957.13
2017-07-06T03:45:25.762Z,957.15
2017-07-06T03:46:25.803Z,957.13
2017-07-06T03:47:25.891Z,957.13
2017-07-06T03:48:25.916Z,957.13
2017-07-06T03:49:26.057Z,957.17
2017-07-06T03:50:19.627Z,957.17
2017-07-06T03:51:25.669Z,957.17
2017-07-06T03:52:22.533Z,957.15
2017-07-06T03:53:25.690Z,957.15
2017-07-06T03:54:25.719Z,957.20
2017-07-06T03:55:18.801Z,957.18
2017-07-06T03:56:25.850Z,957.17
2017-07-06T03:57:27.010Z,957.17
2017-07-06T03:58:27.130Z,957.17
2017-07-06T03:59:31.900Z,957.16
2017-07-06T04:00:25.951Z,957.19
2017-07-06T04:02:28.297Z,957.18
2017-07-06T04:03:25.392Z,957.21
2017-07-06T04:04:22.283Z,957.18
2017-07-06T04:05:31.370Z,957.20
2017-07-06T04:06:25.463Z,957.18
2017-07-06T04:07:17.212Z,957.20
2017-07-06T04:08:25.618Z,957.23
2017-07-06T04:10:17.786Z,957.22
2017-07-06T04:12:27.957Z,957.21
2017-07-06T04:13:28.043Z,957.20
2017-07-06T04:14:25.846Z,957.26
2017-07-06T04:15:25.910Z,957.27
2017-07-06T04:16:31.981Z,957.21
2017-07-06T04:17:29.158Z,957.26
2017-07-06T04:18:25.916Z,957.27
2017-07-06T04:19:23.710Z,957.25
2017-07-06T04:20:25.867Z,957.26
2017-07-06T04:22:28.195Z,957.29
2017-07-06T04:23:29.230Z,957.26
2017-07-06T04:24:25.251Z,957.26
2017-07-06T04:26:26.122Z,957.26
2017-07-06T04:27:26.231Z,957.29
2017-07-06T04:28:26.351Z,957.27
2017-07-06T04:29:25.454Z,957.25
2017-07-06T04:30:25.203Z,957.26
2017-07-06T04:32:25.333Z,957.25
2017-07-06T04:35:25.429Z,957.24
2017-07-06T04:36:25.526Z,957.28
2017-07-06T04:37:25.633Z,957.24
2017-07-06T04:38:25.671Z,957.27
2017-07-06T04:39:20.248Z,957.30
2017-07-06T04:40:25.309Z,957.29
2017-07-06T04:43:25.571Z,957.26
2017-07-06T04:44:25.614Z,957.31
2017-07-06T04:45:25.650Z,957.31
2017-07-06T04:46:28.719Z,957.28
2017-07-06T04:48:25.724Z,957.29
2017-07-06T04:49:25.800Z,957.33
2017-07-06T04:50:25.926Z,957.37
2017-07-06T04:52:25.941Z,957.29
2017-07-06T04:53:26.985Z,957.31
2017-07-06T04:54:26.033Z,957.32
2017-07-06T04:55:26.141Z,957.35
2017-07-06T04:56:26.198Z,957.32
2017-07-06T04:58:26.182Z,957.30
2017-07-06T04:59:25.356Z,957.28
2017-07-06T05:00:25.510Z,957.32
2017-07-06T05:02:25.880Z,957.33
2017-07-06T05:04:29.092Z,957.39
2017-07-06T05:05:26.167Z,957.35
2017-07-06T05:06:33.612Z,957.42
2017-07-06T05:07:26.196Z,957.44
2017-07-06T05:09:26.256Z,957.45
2017-07-06T05:12:12.727Z,957.43
2017-07-06T05:14:23.068Z,957.43
2017-07-06T05:15:23.561Z,957.47
2017-07-06T05:16:19.632Z,957.43
2017-07-06T05:17:25.672Z,957.44
2017-07-06T05:19:18.203Z,957.47
2017-07-06T05:20:17.854Z,957.48
2017-07-06T05:22:31.545Z,957.46
2017-07-06T05:34:29.087Z,957.45
2017-07-06T05:36:36.916Z,957.44
2017-07-06T05:37:19.907Z,957.46
2017-07-06T05:38:20.194Z,957.48
2017-07-06T05:40:19.427Z,957.46
2017-07-06T05:41:35.951Z,957.46
2017-07-06T05:42:18.256Z,957.51
2017-07-06T05:44:20.802Z,957.55
2017-07-06T05:45:19.810Z,957.51
2017-07-06T05:46:29.347Z,957.50
2017-07-06T05:47:19.457Z,957.51
2017-07-06T05:49:19.945Z,957.57
2017-07-06T05:50:19.980Z,957.55
2017-07-06T05:51:28.566Z,957.56
2017-07-06T05:52:23.427Z,957.54
2017-07-06T05:53:19.257Z,957.60
2017-07-06T05:55:22.922Z,957.63
2017-07-06T05:56:15.106Z,957.64
2017-07-06T05:57:26.079Z,957.62
2017-07-06T05:58:26.136Z,957.60
2017-07-06T05:59:32.231Z,957.61
2017-07-06T06:00:16.950Z,957.59
2017-07-06T06:02:25.475Z,957.62
2017-07-06T06:03:26.114Z,957.59
2017-07-06T06:04:26.114Z,957.58
2017-07-06T06:05:25.715Z,957.60
2017-07-06T06:06:28.429Z,957.64
2017-07-06T06:07:25.487Z,957.63
2017-07-06T06:08:25.578Z,957.63
2017-07-06T06:09:25.820Z,957.63
2017-07-06T06:10:25.908Z,957.63
2017-07-06T06:12:22.586Z,957.68
2017-07-06T06:13:22.536Z,957.69
2017-07-06T06:14:25.516Z,957.73
2017-07-06T06:15:31.214Z,957.72
2017-07-06T06:16:25.498Z,957.70
2017-07-06T06:17:28.697Z,957.69
2017-07-06T06:18:26.750Z,957.68
2017-07-06T06:19:25.478Z,957.68
2017-07-06T06:20:25.539Z,957.70
2017-07-06T06:22:20.177Z,957.69
2017-07-06T06:23:26.274Z,957.70
2017-07-06T06:24:27.362Z,957.74
2017-07-06T06:25:30.687Z,957.71
2017-07-06T06:26:27.417Z,957.71
2017-07-06T06:27:27.565Z,957.67
2017-07-06T06:28:26.098Z,957.70
2017-07-06T06:29:26.156Z,957.70
2017-07-06T06:30:26.198Z,957.69
2017-07-06T06:32:25.405Z,957.69
2017-07-06T06:33:26.540Z,957.71
2017-07-06T06:34:25.609Z,957.67
2017-07-06T06:35:27.736Z,957.69
2017-07-06T06:36:25.797Z,957.67
2017-07-06T06:37:25.475Z,957.68
2017-07-06T06:38:25.551Z,957.66
2017-07-06T06:39:25.629Z,957.71
2017-07-06T06:40:25.797Z,957.72
2017-07-06T06:42:28.142Z,957.71
2017-07-06T06:43:28.308Z,957.74
2017-07-06T06:44:28.208Z,957.74
2017-07-06T06:46:25.329Z,957.74
2017-07-06T06:47:27.529Z,957.72
2017-07-06T06:48:25.627Z,957.71
2017-07-06T06:49:25.727Z,957.72
2017-07-06T06:50:31.809Z,957.75
2017-07-06T07:02:25.767Z,957.80
2017-07-06T07:03:25.547Z,957.81
2017-07-06T07:04:25.592Z,957.81
2017-07-06T07:05:25.849Z,957.82
2017-07-06T07:07:25.999Z,957.82
2017-07-06T07:08:26.056Z,957.83
2017-07-06T07:09:26.104Z,957.82
2017-07-06T07:10:26.172Z,957.80
2017-07-06T07:13:25.408Z,957.79
2017-07-06T07:14:30.997Z,957.77
2017-07-06T07:15:26.024Z,957.75
2017-07-06T07:16:26.155Z,957.76
2017-07-06T07:17:29.310Z,957.79
2017-07-06T07:18:25.426Z,957.78
2017-07-06T07:19:18.614Z,957.76
2017-07-06T07:20:25.709Z,957.72
2017-07-06T07:23:29.198Z,957.73
2017-07-06T07:24:25.294Z,957.73
2017-07-06T07:25:30.091Z,957.75
2017-07-06T07:26:26.166Z,957.72
2017-07-06T07:28:26.216Z,957.75
2017-07-06T07:33:30.989Z,957.71
2017-07-06T07:34:26.130Z,957.73
2017-07-06T07:35:26.246Z,957.76
2017-07-06T07:36:27.196Z,957.71
2017-07-06T07:37:25.328Z,957.76
2017-07-06T07:38:25.495Z,957.73
2017-07-06T07:39:25.568Z,957.73
2017-07-06T07:40:25.671Z,957.70
2017-07-06T07:41:28.796Z,957.76
2017-07-06T07:42:26.964Z,957.70
2017-07-06T07:43:26.069Z,957.70
2017-07-06T07:44:26.182Z,957.69
2017-07-06T07:45:26.238Z,957.70
2017-07-06T07:46:24.948Z,957.72
2017-07-06T07:48:26.076Z,957.72
2017-07-06T07:52:25.590Z,957.71
2017-07-06T07:53:25.673Z,957.73
2017-07-06T07:54:25.699Z,957.73
2017-07-06T07:56:22.600Z,957.76
2017-07-06T07:57:26.756Z,957.76
2017-07-06T07:58:26.925Z,957.76
2017-07-06T07:59:25.976Z,957.76
2017-07-06T08:00:25.664Z,957.76
2017-07-06T08:03:25.958Z,957.77
2017-07-06T08:04:26.001Z,957.78
2017-07-06T08:05:25.478Z,957.83
2017-07-06T08:06:25.616Z,957.79
2017-07-06T08:07:18.992Z,957.79
2017-07-06T08:08:26.077Z,957.79
2017-07-06T08:09:26.202Z,957.74
2017-07-06T08:10:26.384Z,957.79
2017-07-06T08:22:26.216Z,957.78
2017-07-06T08:23:25.383Z,957.77
2017-07-06T08:24:28.579Z,957.80
2017-07-06T08:25:25.639Z,957.79
2017-07-06T08:26:25.941Z,957.75
2017-07-06T08:27:26.008Z,957.74
2017-07-06T08:29:26.113Z,957.74
2017-07-06T08:30:29.267Z,957.75
2017-07-06T08:32:28.620Z,957.77
2017-07-06T08:34:25.731Z,957.70
2017-07-06T08:35:25.848Z,957.64
2017-07-06T08:36:25.894Z,957.63
2017-07-06T08:37:25.974Z,957.69
2017-07-06T08:38:26.021Z,957.66
2017-07-06T08:39:26.065Z,957.69
2017-07-06T08:40:26.103Z,957.65
2017-07-06T08:46:26.188Z,957.62
2017-07-06T08:47:22.210Z,957.62
2017-07-06T08:48:25.358Z,957.61
2017-07-06T08:49:25.500Z,957.62
2017-07-06T08:50:27.634Z,957.66
2017-07-06T08:52:23.131Z,957.65
2017-07-06T08:59:26.208Z,957.63
2017-07-06T09:02:25.568Z,957.59
2017-07-06T09:05:25.529Z,957.61
2017-07-06T09:06:27.703Z,957.57
2017-07-06T09:07:25.767Z,957.55
2017-07-06T09:08:25.869Z,957.54
2017-07-06T09:09:26.000Z,957.52
2017-07-06T09:10:26.279Z,957.52
2017-07-06T09:12:31.195Z,957.54
2017-07-06T09:14:25.703Z,957.55
2017-07-06T09:15:25.757Z,957.47
2017-07-06T09:16:25.868Z,957.48
2017-07-06T09:17:29.048Z,957.51
2017-07-06T09:18:20.640Z,957.49
2017-07-06T09:19:25.742Z,957.54
2017-07-06T09:20:25.923Z,957.54
2017-07-06T09:22:18.731Z,957.50
2017-07-06T09:24:28.038Z,957.59
2017-07-06T09:25:25.686Z,957.52
2017-07-06T09:26:25.806Z,957.51
2017-07-06T09:27:25.937Z,957.51
2017-07-06T09:28:26.107Z,957.49
2017-07-06T09:29:26.236Z,957.51
2017-07-06T09:30:25.466Z,957.48
2017-07-06T09:32:25.753Z,957.47
2017-07-06T09:36:25.831Z,957.44
2017-07-06T09:37:18.930Z,957.45
2017-07-06T09:38:26.097Z,957.44
2017-07-06T09:39:26.151Z,957.44
2017-07-06T09:40:26.329Z,957.47
2017-07-06T09:41:25.446Z,957.45
2017-07-06T09:43:25.504Z,957.44
2017-07-06T09:44:25.589Z,957.44
2017-07-06T09:45:25.701Z,957.40
2017-07-06T09:46:23.036Z,957.40
2017-07-06T09:47:26.112Z,957.41
2017-07-06T09:48:25.845Z,957.37
2017-07-06T09:49:27.003Z,957.35
2017-07-06T09:51:23.106Z,957.35
2017-07-06T09:52:26.158Z,957.30
2017-07-06T09:53:31.767Z,957.32
2017-07-06T09:54:25.799Z,957.34
2017-07-06T09:58:25.910Z,957.40
2017-07-06T09:59:20.222Z,957.34
2017-07-06T10:03:18.413Z,957.34
2017-07-06T10:04:25.565Z,957.37
2017-07-06T10:05:25.718Z,957.40
2017-07-06T10:06:25.772Z,957.40
2017-07-06T10:07:25.863Z,957.41
2017-07-06T10:08:25.561Z,957.39
2017-07-06T10:10:25.563Z,957.41
2017-07-06T10:12:27.917Z,957.35
2017-07-06T10:13:26.110Z,957.33
2017-07-06T10:14:26.114Z,957.36
2017-07-06T10:16:11.633Z,957.36
2017-07-06T10:17:29.299Z,957.31
2017-07-06T10:18:12.254Z,957.31
2017-07-06T10:19:18.442Z,957.36
2017-07-06T10:22:25.540Z,957.37
2017-07-06T10:23:31.602Z,957.37
2017-07-06T10:24:25.746Z,957.40
2017-07-06T10:25:25.875Z,957.36
2017-07-06T10:26:25.945Z,957.35
2017-07-06T10:27:26.057Z,957.35
2017-07-06T10:28:20.646Z,957.34
2017-07-06T10:29:25.710Z,957.34
2017-07-06T10:30:18.848Z,957.35
2017-07-06T10:32:28.202Z,957.34
2017-07-06T10:34:26.314Z,957.29
2017-07-06T10:35:25.477Z,957.28
2017-07-06T10:37:25.538Z,957.30
2017-07-06T10:38:26.061Z,957.33
2017-07-06T10:39:27.209Z,957.38
2017-07-06T10:40:25.363Z,957.37
2017-07-06T10:42:25.563Z,957.34
2017-07-06T10:44:25.678Z,957.33
2017-07-06T10:45:25.842Z,957.33
2017-07-06T10:47:32.932Z,957.35
2017-07-06T10:48:25.859Z,957.36
2017-07-06T10:49:31.611Z,957.32
2017-07-06T10:50:25.812Z,957.35
2017-07-06T10:52:23.210Z,957.33
2017-07-06T10:53:24.969Z,957.33
2017-07-06T10:54:26.160Z,957.35
2017-07-06T10:55:26.197Z,957.29
2017-07-06T10:56:26.021Z,957.27
2017-07-06T10:57:19.205Z,957.24
2017-07-06T10:58:25.455Z,957.21
2017-07-06T10:59:25.582Z,957.26
2017-07-06T11:03:25.856Z,957.24
2017-07-06T11:04:27.000Z,957.21
2017-07-06T11:05:26.112Z,957.23
2017-07-06T11:06:26.166Z,957.23
2017-07-06T11:07:26.219Z,957.24
2017-07-06T11:08:25.426Z,957.29
2017-07-06T11:10:17.088Z,957.25
2017-07-06T11:13:25.435Z,957.22
2017-07-06T11:14:25.560Z,957.19
2017-07-06T11:16:22.527Z,957.14
2017-07-06T11:17:25.714Z,957.14
2017-07-06T11:18:25.938Z,957.12
2017-07-06T11:19:17.812Z,957.09
2017-07-06T11:20:25.986Z,957.08
2017-07-06T11:23:29.335Z,957.06
2017-07-06T11:24:30.068Z,957.08
2017-07-06T11:25:26.165Z,957.03
2017-07-06T11:26:26.207Z,957.03
2017-07-06T11:27:25.450Z,957.03
2017-07-06T11:32:16.907Z,956.93
2017-07-06T11:33:16.642Z,956.95
2017-07-06T11:34:25.343Z,956.92
2017-07-06T11:35:22.259Z,956.92
2017-07-06T11:40:18.050Z,956.95
2017-07-06T11:42:25.577Z,956.90
2017-07-06T11:48:25.788Z,956.83
2017-07-06T11:49:25.589Z,956.84
2017-07-06T11:54:25.515Z,956.85
2017-07-06T11:58:25.349Z,956.91
2017-07-06T12:00:25.470Z,956.83
2017-07-06T12:03:28.977Z,956.87
2017-07-06T12:04:25.606Z,956.90
2017-07-06T12:05:25.699Z,956.86
2017-07-06T12:06:25.921Z,956.84
2017-07-06T12:08:26.111Z,956.78
2017-07-06T12:10:25.778Z,956.80
2017-07-06T12:12:26.171Z,956.80
2017-07-06T12:15:26.088Z,956.79
2017-07-06T12:17:29.366Z,956.78
2017-07-06T12:18:25.455Z,956.83
2017-07-06T12:19:25.614Z,956.77
2017-07-06T12:20:25.731Z,956.77
2017-07-06T12:22:26.061Z,956.73
2017-07-06T12:23:26.257Z,956.75
2017-07-06T12:24:26.001Z,956.70
2017-07-06T12:25:26.086Z,956.75
2017-07-06T12:28:25.580Z,956.70
2017-07-06T12:29:20.169Z,956.71
2017-07-06T12:30:26.233Z,956.69
2017-07-06T12:32:25.654Z,956.66
2017-07-06T12:33:18.391Z,956.62
2017-07-06T12:36:37.315Z,956.67
2017-07-06T12:39:26.176Z,956.64
2017-07-06T12:40:26.303Z,956.65
2017-07-06T12:42:25.663Z,956.67
2017-07-06T12:43:25.758Z,956.66
2017-07-06T12:44:25.870Z,956.66
2017-07-06T12:45:26.076Z,956.66
2017-07-06T12:46:25.968Z,956.64
2017-07-06T12:47:26.024Z,956.65
2017-07-06T12:48:32.116Z,956.63
2017-07-06T12:49:27.259Z,956.67
2017-07-06T12:52:17.932Z,956.65
2017-07-06T12:53:26.284Z,956.70
2017-07-06T12:54:23.440Z,956.69
2017-07-06T12:55:25.594Z,956.69
2017-07-06T12:56:25.691Z,956.69
2017-07-06T12:57:25.851Z,956.72
2017-07-06T12:58:25.952Z,956.69
2017-07-06T12:59:26.064Z,956.67
2017-07-06T13:03:26.318Z,956.65
2017-07-06T13:05:25.413Z,956.58
2017-07-06T13:06:28.608Z,956.57
2017-07-06T13:07:25.742Z,956.55
2017-07-06T13:08:31.899Z,956.58
2017-07-06T13:09:25.618Z,956.57
2017-07-06T13:10:25.766Z,956.60
2017-07-06T13:12:26.048Z,956.53
2017-07-06T13:14:18.642Z,956.49
2017-07-06T13:15:25.758Z,956.50
2017-07-06T13:16:28.937Z,956.46
2017-07-06T13:17:26.037Z,956.46
2017-07-06T13:18:25.793Z,956.48
2017-07-06T13:19:26.046Z,956.50
2017-07-06T13:20:26.079Z,956.46
2017-07-06T13:23:26.209Z,956.43
2017-07-06T13:25:26.341Z,956.45
2017-07-06T13:27:25.394Z,956.40
2017-07-06T13:29:18.161Z,956.39
2017-07-06T13:30:25.795Z,956.45
2017-07-06T13:32:22.671Z,956.40
2017-07-06T13:35:25.657Z,956.37
2017-07-06T13:36:25.813Z,956.39
2017-07-06T13:37:25.876Z,956.36
2017-07-06T13:39:31.396Z,956.34
2017-07-06T13:40:25.564Z,956.37
2017-07-06T13:44:12.752Z,956.21
2017-07-06T13:45:19.029Z,956.21
2017-07-06T13:46:26.102Z,956.23
2017-07-06T13:49:18.872Z,956.13
2017-07-06T13:51:28.943Z,956.14
2017-07-06T13:52:23.069Z,956.18
2017-07-06T13:53:20.316Z,956.12
2017-07-06T13:54:25.767Z,956.15
2017-07-06T13:55:17.979Z,956.18
2017-07-06T13:56:18.680Z,956.12
2017-07-06T13:57:25.207Z,956.12
2017-07-06T13:58:17.681Z,956.15
2017-07-06T13:59:22.517Z,956.13
2017-07-06T14:00:26.683Z,956.11
2017-07-06T14:01:18.929Z,956.06
2017-07-06T14:02:18.660Z,956.09
2017-07-06T14:03:19.837Z,956.07
2017-07-06T14:04:22.748Z,956.09
2017-07-06T14:05:22.209Z,956.07
2017-07-06T14:06:22.094Z,956.06
2017-07-06T14:07:23.088Z,956.02
2017-07-06T14:08:23.191Z,956.01
2017-07-06T14:09:17.905Z,956.03
2017-07-06T14:10:18.639Z,956.05
2017-07-06T14:12:22.454Z,956.05
2017-07-06T14:13:26.591Z,956.06
2017-07-06T14:14:18.010Z,956.12
2017-07-06T14:15:23.189Z,956.09
2017-07-06T14:16:19.209Z,956.07
2017-07-06T14:17:10.450Z,956.08
2017-07-06T14:18:18.917Z,956.06
2017-07-06T14:19:18.606Z,956.05
2017-07-06T14:20:17.982Z,956.03
2017-07-06T14:22:22.771Z,956.06
2017-07-06T14:23:17.481Z,956.04
2017-07-06T14:24:18.028Z,956.04
2017-07-06T14:25:23.079Z,956.05
2017-07-06T14:26:23.187Z,956.00
2017-07-06T14:27:18.698Z,956.04
2017-07-06T14:28:17.868Z,956.04
2017-07-06T14:29:22.755Z,955.97
2017-07-06T14:30:18.973Z,955.94
2017-07-06T14:31:19.102Z,955.96
2017-07-06T14:32:23.231Z,955.92
2017-07-06T14:33:22.236Z,955.89
2017-07-06T14:34:17.368Z,955.85
2017-07-06T14:35:19.682Z,955.88
2017-07-06T14:36:22.848Z,955.91
2017-07-06T14:37:22.733Z,955.92
2017-07-06T14:38:22.669Z,955.89
2017-07-06T14:39:22.457Z,955.93
2017-07-06T14:40:17.716Z,955.83
2017-07-06T14:41:17.961Z,955.86
2017-07-06T14:42:22.706Z,955.82
2017-07-06T14:43:18.002Z,955.78
2017-07-06T14:44:17.325Z,955.80
2017-07-06T14:46:22.520Z,955.74
2017-07-06T14:47:18.267Z,955.71
2017-07-06T14:48:22.074Z,955.70
2017-07-06T14:49:22.914Z,955.68
2017-07-06T14:50:22.834Z,955.70
2017-07-06T14:51:22.926Z,955.67
2017-07-06T14:52:22.805Z,955.68
2017-07-06T14:53:22.665Z,955.61
2017-07-06T14:54:22.526Z,955.58
2017-07-06T14:55:19.790Z,955.59
2017-07-06T14:56:18.217Z,955.58
2017-07-06T14:57:22.724Z,955.63
2017-07-06T14:58:22.520Z,955.58
2017-07-06T14:59:22.353Z,955.58
2017-07-06T15:00:17.927Z,955.59
2017-07-06T15:01:22.358Z,955.62
2017-07-06T15:02:22.163Z,955.58
2017-07-06T15:03:18.865Z,955.55
2017-07-06T15:04:22.376Z,955.53
2017-07-06T15:05:22.306Z,955.55
2017-07-06T15:06:22.794Z,955.59
2017-07-06T15:07:18.311Z,955.53
2017-07-06T15:08:22.767Z,955.53
2017-07-06T15:09:18.129Z,955.52
2017-07-06T15:10:17.675Z,955.47
2017-07-06T15:11:23.195Z,955.47
2017-07-06T15:12:20.420Z,955.45
2017-07-06T15:13:22.314Z,955.44
2017-07-06T15:14:22.055Z,955.43
2017-07-06T15:15:23.065Z,955.38
2017-07-06T15:16:22.927Z,955.36
2017-07-06T15:17:22.836Z,955.36
2017-07-06T15:18:22.576Z,955.33
2017-07-06T15:19:22.365Z,955.35
2017-07-06T15:20:17.927Z,955.41
2017-07-06T15:21:17.895Z,955.39
2017-07-06T15:23:23.003Z,955.33
2017-07-06T15:24:23.502Z,955.34
2017-07-06T15:26:18.332Z,955.28
2017-07-06T15:27:18.015Z,955.29
2017-07-06T15:28:22.903Z,955.27
2017-07-06T15:29:22.808Z,955.24
2017-07-06T15:30:17.492Z,955.30
2017-07-06T15:43:22.975Z,955.35
2017-07-06T15:44:21.018Z,955.42
2017-07-06T15:45:19.507Z,955.39
2017-07-06T15:46:17.517Z,955.40
2017-07-06T15:47:14.034Z,955.37
2017-07-06T15:48:14.102Z,955.37
2017-07-06T15:49:12.373Z,955.40
2017-07-06T15:50:14.895Z,955.36
2017-07-06T15:51:17.427Z,955.36
2017-07-06T15:53:25.992Z,955.35
2017-07-06T15:54:09.685Z,955.38
2017-07-06T15:55:29.277Z,955.38
2017-07-06T15:56:20.490Z,955.41
2017-07-06T15:57:37.296Z,955.43
2017-07-06T15:59:10.397Z,955.40
2017-07-06T16:00:10.422Z,955.40
2017-07-06T16:01:28.400Z,955.34
2017-07-06T16:02:08.028Z,955.37
2017-07-06T16:03:10.694Z,955.35
2017-07-06T16:04:14.954Z,955.41
2017-07-06T16:05:13.876Z,955.44
2017-07-06T16:06:22.666Z,955.39
2017-07-06T16:07:19.666Z,955.43
2017-07-06T16:09:12.921Z,955.41
2017-07-06T16:10:25.557Z,955.40
2017-07-06T16:11:08.936Z,955.38
2017-07-06T16:12:08.754Z,955.37
2017-07-06T16:13:22.635Z,955.39
2017-07-06T16:14:11.368Z,955.41
2017-07-06T16:15:23.322Z,955.41
2017-07-06T16:16:23.697Z,955.38
2017-07-06T16:17:23.064Z,955.39
2017-07-06T16:18:18.671Z,955.38
2017-07-06T16:22:18.522Z,955.33
2017-07-06T16:23:25.631Z,955.31
2017-07-06T16:25:18.433Z,955.31
2017-07-06T16:27:12.959Z,955.31
2017-07-06T16:28:08.674Z,955.29
2017-07-06T16:29:08.034Z,955.28
2017-07-06T16:30:22.936Z,955.26
2017-07-06T16:31:22.887Z,955.25
2017-07-06T16:33:26.075Z,955.20
2017-07-06T16:38:11.964Z,955.19
2017-07-06T16:39:23.193Z,955.15
2017-07-06T16:40:19.821Z,955.12
2017-07-06T16:41:12.583Z,955.15
2017-07-06T16:42:17.977Z,955.17
2017-07-06T16:43:11.716Z,955.15
2017-07-06T16:44:17.794Z,955.12
2017-07-06T16:45:28.669Z,955.14
2017-07-06T16:46:25.791Z,955.15
2017-07-06T16:47:26.905Z,955.13
2017-07-06T16:50:19.147Z,955.20
2017-07-06T16:52:30.862Z,955.24
2017-07-06T16:53:25.426Z,955.24
2017-07-06T16:54:18.382Z,955.23
2017-07-06T16:56:26.340Z,955.25
2017-07-06T17:00:18.815Z,955.20
2017-07-06T17:01:26.594Z,955.23